sensor_id;sensor_type;location;lat;lon;timestamp;temperature;humidity
63976;DHT22;50167;47.958;21.780;2023-06-22T00:00:58;27.13;60.83
63976;DHT22;50167;47.958;21.780;2023-06-22T00:03:25;27.25;60.52
63976;DHT22;50167;47.958;21.780;2023-06-22T00:05:52;27.32;60.28
63976;DHT22;50167;47.958;21.780;2023-06-22T00:08:19;27.45;60.20
63976;DHT22;50167;47.958;21.780;2023-06-22T00:10:46;27.57;59.94
63976;DHT22;50167;47.958;21.780;2023-06-22T00:13:14;27.64;59.43
63976;DHT22;50167;47.958;21.780;2023-06-22T00:15:41;27.22;59.58
63976;DHT22;50167;47.958;21.780;2023-06-22T00:18:10;26.30;61.49
63976;DHT22;50167;47.958;21.780;2023-06-22T00:20:37;25.49;63.61
63976;DHT22;50167;47.958;21.780;2023-06-22T00:23:05;25.72;65.02
63976;DHT22;50167;47.958;21.780;2023-06-22T00:25:38;26.51;63.18
63976;DHT22;50167;47.958;21.780;2023-06-22T00:28:08;26.89;61.88
63976;DHT22;50167;47.958;21.780;2023-06-22T00:30:34;27.07;61.26
63976;DHT22;50167;47.958;21.780;2023-06-22T00:33:01;27.15;61.02
63976;DHT22;50167;47.958;21.780;2023-06-22T00:35:28;27.27;60.53
63976;DHT22;50167;47.958;21.780;2023-06-22T00:37:58;27.38;60.11
63976;DHT22;50167;47.958;21.780;2023-06-22T00:40:29;27.47;59.88
63976;DHT22;50167;47.958;21.780;2023-06-22T00:42:56;27.58;59.50
63976;DHT22;50167;47.958;21.780;2023-06-22T00:45:24;27.64;59.34
63976;DHT22;50167;47.958;21.780;2023-06-22T00:47:54;27.20;59.55
63976;DHT22;50167;47.958;21.780;2023-06-22T00:50:24;26.27;61.64
63976;DHT22;50167;47.958;21.780;2023-06-22T00:52:56;25.42;64.22
63976;DHT22;50167;47.958;21.780;2023-06-22T00:55:24;25.66;65.16
63976;DHT22;50167;47.958;21.780;2023-06-22T00:57:52;26.35;63.75
63976;DHT22;50167;47.958;21.780;2023-06-22T01:00:25;26.76;62.49
63976;DHT22;50167;47.958;21.780;2023-06-22T01:02:52;26.99;61.77
63976;DHT22;50167;47.958;21.780;2023-06-22T01:05:21;27.13;61.11
63976;DHT22;50167;47.958;21.780;2023-06-22T01:11:04;27.34;60.37
63976;DHT22;50167;47.958;21.780;2023-06-22T01:16:18;27.17;59.76
63976;DHT22;50167;47.958;21.780;2023-06-22T01:18:45;26.96;60.70
63976;DHT22;50167;47.958;21.780;2023-06-22T01:21:16;27.01;60.63
63976;DHT22;50167;47.958;21.780;2023-06-22T01:26:43;26.93;60.83
63976;DHT22;50167;47.958;21.780;2023-06-22T01:29:11;26.97;61.00
63976;DHT22;50167;47.958;21.780;2023-06-22T01:31:40;26.96;60.80
63976;DHT22;50167;47.958;21.780;2023-06-22T01:34:09;26.94;60.80
63976;DHT22;50167;47.958;21.780;2023-06-22T01:36:36;26.99;60.81
63976;DHT22;50167;47.958;21.780;2023-06-22T01:39:03;27.11;60.64
63976;DHT22;50167;47.958;21.780;2023-06-22T01:41:36;27.25;60.34
63976;DHT22;50167;47.958;21.780;2023-06-22T01:44:07;27.37;60.05
63976;DHT22;50167;47.958;21.780;2023-06-22T01:46:36;27.38;60.00
63976;DHT22;50167;47.958;21.780;2023-06-22T01:49:04;27.44;59.79
63976;DHT22;50167;47.958;21.780;2023-06-22T01:51:31;27.37;59.71
63976;DHT22;50167;47.958;21.780;2023-06-22T01:53:57;27.37;60.02
63976;DHT22;50167;47.958;21.780;2023-06-22T01:56:23;27.38;59.91
63976;DHT22;50167;47.958;21.780;2023-06-22T01:59:19;27.40;59.74
63976;DHT22;50167;47.958;21.780;2023-06-22T02:02:06;27.34;59.93
63976;DHT22;50167;47.958;21.780;2023-06-22T02:04:48;27.45;59.89
63976;DHT22;50167;47.958;21.780;2023-06-22T02:07:17;27.57;59.55
63976;DHT22;50167;47.958;21.780;2023-06-22T02:09:47;27.69;59.28
63976;DHT22;50167;47.958;21.780;2023-06-22T02:12:18;27.22;59.36
63976;DHT22;50167;47.958;21.780;2023-06-22T02:14:46;26.22;61.65
63976;DHT22;50167;47.958;21.780;2023-06-22T02:17:13;25.38;63.97
63976;DHT22;50167;47.958;21.780;2023-06-22T02:19:43;25.49;65.31
63976;DHT22;50167;47.958;21.780;2023-06-22T02:22:10;26.30;63.79
63976;DHT22;50167;47.958;21.780;2023-06-22T02:24:36;26.78;62.22
63976;DHT22;50167;47.958;21.780;2023-06-22T02:27:03;27.01;61.55
63976;DHT22;50167;47.958;21.780;2023-06-22T02:29:30;27.13;60.96
63976;DHT22;50167;47.958;21.780;2023-06-22T02:31:56;27.24;60.61
63976;DHT22;50167;47.958;21.780;2023-06-22T02:34:22;27.31;60.26
63976;DHT22;50167;47.958;21.780;2023-06-22T02:36:49;27.34;59.87
63976;DHT22;50167;47.958;21.780;2023-06-22T02:39:22;27.47;59.70
63976;DHT22;50167;47.958;21.780;2023-06-22T02:41:54;27.48;59.36
63976;DHT22;50167;47.958;21.780;2023-06-22T02:44:19;27.04;59.61
63976;DHT22;50167;47.958;21.780;2023-06-22T02:46:46;26.04;61.73
63976;DHT22;50167;47.958;21.780;2023-06-22T02:49:13;25.17;64.10
63976;DHT22;50167;47.958;21.780;2023-06-22T02:51:46;25.23;65.78
63976;DHT22;50167;47.958;21.780;2023-06-22T02:54:15;25.88;64.41
63976;DHT22;50167;47.958;21.780;2023-06-22T02:56:42;26.04;63.67
63976;DHT22;50167;47.958;21.780;2023-06-22T02:59:11;26.12;63.61
63976;DHT22;50167;47.958;21.780;2023-06-22T03:01:37;26.24;63.23
63976;DHT22;50167;47.958;21.780;2023-06-22T03:04:07;26.28;62.76
63976;DHT22;50167;47.958;21.780;2023-06-22T03:06:34;26.32;62.75
63976;DHT22;50167;47.958;21.780;2023-06-22T03:09:03;26.41;62.71
63976;DHT22;50167;47.958;21.780;2023-06-22T03:11:34;26.46;62.42
63976;DHT22;50167;47.958;21.780;2023-06-22T03:14:01;26.51;62.35
63976;DHT22;50167;47.958;21.780;2023-06-22T03:16:28;26.55;62.05
63976;DHT22;50167;47.958;21.780;2023-06-22T03:18:55;26.58;61.78
63976;DHT22;50167;47.958;21.780;2023-06-22T03:21:28;26.59;61.60
63976;DHT22;50167;47.958;21.780;2023-06-22T03:23:55;26.56;61.64
63976;DHT22;50167;47.958;21.780;2023-06-22T03:26:21;26.62;61.79
63976;DHT22;50167;47.958;21.780;2023-06-22T03:28:49;26.72;61.59
63976;DHT22;50167;47.958;21.780;2023-06-22T03:31:15;26.78;61.39
63976;DHT22;50167;47.958;21.780;2023-06-22T03:33:41;27.01;61.06
63976;DHT22;50167;47.958;21.780;2023-06-22T03:36:08;27.13;60.79
63976;DHT22;50167;47.958;21.780;2023-06-22T03:38:34;27.24;60.32
63976;DHT22;50167;47.958;21.780;2023-06-22T03:41:01;27.31;60.13
63976;DHT22;50167;47.958;21.780;2023-06-22T03:43:27;27.37;59.97
63976;DHT22;50167;47.958;21.780;2023-06-22T03:45:53;27.44;59.70
63976;DHT22;50167;47.958;21.780;2023-06-22T03:48:19;27.51;59.60
63976;DHT22;50167;47.958;21.780;2023-06-22T03:50:45;27.64;58.99
63976;DHT22;50167;47.958;21.780;2023-06-22T03:53:11;27.15;59.13
63976;DHT22;50167;47.958;21.780;2023-06-22T03:55:49;26.21;61.32
63976;DHT22;50167;47.958;21.780;2023-06-22T03:58:17;25.33;63.78
63976;DHT22;50167;47.958;21.780;2023-06-22T04:00:50;25.49;65.18
63976;DHT22;50167;47.958;21.780;2023-06-22T04:03:17;26.14;63.82
63976;DHT22;50167;47.958;21.780;2023-06-22T04:05:47;26.45;63.02
63976;DHT22;50167;47.958;21.780;2023-06-22T04:08:15;26.67;62.70
63976;DHT22;50167;47.958;21.780;2023-06-22T04:10:41;26.82;62.11
63976;DHT22;50167;47.958;21.780;2023-06-22T04:13:08;26.96;61.81
63976;DHT22;50167;47.958;21.780;2023-06-22T04:15:34;27.14;61.30
63976;DHT22;50167;47.958;21.780;2023-06-22T04:18:00;27.18;60.92
63976;DHT22;50167;47.958;21.780;2023-06-22T04:20:26;27.28;60.65
63976;DHT22;50167;47.958;21.780;2023-06-22T04:22:54;27.40;60.56
63976;DHT22;50167;47.958;21.780;2023-06-22T04:25:22;27.47;60.19
63976;DHT22;50167;47.958;21.780;2023-06-22T04:27:48;27.64;59.71
63976;DHT22;50167;47.958;21.780;2023-06-22T04:30:15;27.73;59.80
63976;DHT22;50167;47.958;21.780;2023-06-22T04:32:42;27.77;59.49
63976;DHT22;50167;47.958;21.780;2023-06-22T04:35:10;27.77;59.46
63976;DHT22;50167;47.958;21.780;2023-06-22T04:37:37;27.83;59.19
63976;DHT22;50167;47.958;21.780;2023-06-22T04:40:06;27.40;59.74
63976;DHT22;50167;47.958;21.780;2023-06-22T04:42:35;26.56;61.77
63976;DHT22;50167;47.958;21.780;2023-06-22T04:45:03;26.05;64.05
63976;DHT22;50167;47.958;21.780;2023-06-22T04:47:30;26.89;63.07
63976;DHT22;50167;47.958;21.780;2023-06-22T04:49:57;27.52;61.22
63976;DHT22;50167;47.958;21.780;2023-06-22T04:52:23;27.85;59.89
63976;DHT22;50167;47.958;21.780;2023-06-22T04:54:50;28.07;59.28
63976;DHT22;50167;47.958;21.780;2023-06-22T04:57:21;27.77;59.15
63976;DHT22;50167;47.958;21.780;2023-06-22T04:59:49;26.97;60.78
63976;DHT22;50167;47.958;21.780;2023-06-22T05:02:15;26.31;62.54
63976;DHT22;50167;47.958;21.780;2023-06-22T05:04:41;26.56;63.28
63976;DHT22;50167;47.958;21.780;2023-06-22T05:07:08;27.44;61.33
63976;DHT22;50167;47.958;21.780;2023-06-22T05:09:34;27.89;59.90
63976;DHT22;50167;47.958;21.780;2023-06-22T05:12:02;28.09;59.25
63976;DHT22;50167;47.958;21.780;2023-06-22T05:14:29;27.75;58.83
63976;DHT22;50167;47.958;21.780;2023-06-22T05:16:56;26.86;60.83
63976;DHT22;50167;47.958;21.780;2023-06-22T05:19:25;26.04;63.49
63976;DHT22;50167;47.958;21.780;2023-06-22T05:21:53;26.20;64.36
63976;DHT22;50167;47.958;21.780;2023-06-22T05:24:19;26.85;62.48
63976;DHT22;50167;47.958;21.780;2023-06-22T05:26:45;27.14;61.88
63976;DHT22;50167;47.958;21.780;2023-06-22T05:29:11;27.31;61.55
63976;DHT22;50167;47.958;21.780;2023-06-22T05:31:37;27.52;61.07
63976;DHT22;50167;47.958;21.780;2023-06-22T05:34:03;27.73;60.44
63976;DHT22;50167;47.958;21.780;2023-06-22T05:36:29;27.97;59.74
63976;DHT22;50167;47.958;21.780;2023-06-22T05:38:57;28.30;58.93
63976;DHT22;50167;47.958;21.780;2023-06-22T05:41:24;28.14;58.74
63976;DHT22;50167;47.958;21.780;2023-06-22T05:43:51;27.58;60.16
63976;DHT22;50167;47.958;21.780;2023-06-22T05:46:18;27.13;61.26
63976;DHT22;50167;47.958;21.780;2023-06-22T05:48:45;26.73;61.68
63976;DHT22;50167;47.958;21.780;2023-06-22T05:51:11;26.42;63.01
63976;DHT22;50167;47.958;21.780;2023-06-22T05:53:37;26.83;62.75
63976;DHT22;50167;47.958;21.780;2023-06-22T05:56:28;27.66;60.50
63976;DHT22;50167;47.958;21.780;2023-06-22T05:58:54;28.17;59.57
63976;DHT22;50167;47.958;21.780;2023-06-22T06:01:21;28.43;58.45
63976;DHT22;50167;47.958;21.780;2023-06-22T06:03:48;28.09;59.10
63976;DHT22;50167;47.958;21.780;2023-06-22T06:06:16;27.41;61.19
63976;DHT22;50167;47.958;21.780;2023-06-22T06:08:42;26.72;63.15
63976;DHT22;50167;47.958;21.780;2023-06-22T06:11:08;26.94;63.29
63976;DHT22;50167;47.958;21.780;2023-06-22T06:13:34;27.66;61.59
63976;DHT22;50167;47.958;21.780;2023-06-22T06:16:01;28.14;60.28
63976;DHT22;50167;47.958;21.780;2023-06-22T06:18:27;28.37;59.66
63976;DHT22;50167;47.958;21.780;2023-06-22T06:20:53;28.54;58.81
63976;DHT22;50167;47.958;21.780;2023-06-22T06:23:19;28.19;59.12
63976;DHT22;50167;47.958;21.780;2023-06-22T06:25:46;27.47;61.22
63976;DHT22;50167;47.958;21.780;2023-06-22T06:28:12;26.87;62.85
63976;DHT22;50167;47.958;21.780;2023-06-22T06:30:38;27.21;63.07
63976;DHT22;50167;47.958;21.780;2023-06-22T06:33:04;27.95;60.98
63976;DHT22;50167;47.958;21.780;2023-06-22T06:35:32;28.44;59.29
63976;DHT22;50167;47.958;21.780;2023-06-22T06:37:59;28.30;59.19
63976;DHT22;50167;47.958;21.780;2023-06-22T06:40:25;27.58;60.75
63976;DHT22;50167;47.958;21.780;2023-06-22T06:42:51;26.99;62.53
63976;DHT22;50167;47.958;21.780;2023-06-22T06:45:21;27.13;62.63
63976;DHT22;50167;47.958;21.780;2023-06-22T06:47:50;27.95;60.98
63976;DHT22;50167;47.958;21.780;2023-06-22T06:50:17;28.44;59.21
63976;DHT22;50167;47.958;21.780;2023-06-22T06:52:44;28.31;58.80
63976;DHT22;50167;47.958;21.780;2023-06-22T06:55:10;27.65;60.70
63976;DHT22;50167;47.958;21.780;2023-06-22T06:57:41;27.07;62.52
63976;DHT22;50167;47.958;21.780;2023-06-22T07:00:10;27.24;62.62
63976;DHT22;50167;47.958;21.780;2023-06-22T07:02:39;27.85;60.58
63976;DHT22;50167;47.958;21.780;2023-06-22T07:05:06;28.13;59.74
63976;DHT22;50167;47.958;21.780;2023-06-22T07:07:33;28.35;59.37
63976;DHT22;50167;47.958;21.780;2023-06-22T07:09:59;28.24;59.11
63976;DHT22;50167;47.958;21.780;2023-06-22T07:12:26;27.66;60.13
63976;DHT22;50167;47.958;21.780;2023-06-22T07:14:53;27.21;61.95
63976;DHT22;50167;47.958;21.780;2023-06-22T07:17:19;26.93;62.86
63976;DHT22;50167;47.958;21.780;2023-06-22T07:19:45;27.51;62.60
63976;DHT22;50167;47.958;21.780;2023-06-22T07:22:11;28.51;60.27
63976;DHT22;50167;47.958;21.780;2023-06-22T07:24:38;29.10;58.63
63976;DHT22;50167;47.958;21.780;2023-06-22T07:27:04;29.16;57.57
63976;DHT22;50167;47.958;21.780;2023-06-22T07:29:32;28.85;57.47
63976;DHT22;50167;47.958;21.780;2023-06-22T07:31:59;28.61;59.47
63976;DHT22;50167;47.958;21.780;2023-06-22T07:34:26;28.38;60.27
63976;DHT22;50167;47.958;21.780;2023-06-22T07:36:52;28.17;59.87
63976;DHT22;50167;47.958;21.780;2023-06-22T07:39:19;28.03;60.78
63976;DHT22;50167;47.958;21.780;2023-06-22T07:41:47;27.79;61.55
63976;DHT22;50167;47.958;21.780;2023-06-22T07:44:13;27.62;61.81
63976;DHT22;50167;47.958;21.780;2023-06-22T07:46:39;27.51;62.69
63976;DHT22;50167;47.958;21.780;2023-06-22T07:49:06;28.22;61.27
63976;DHT22;50167;47.958;21.780;2023-06-22T07:51:34;29.33;59.10
63976;DHT22;50167;47.958;21.780;2023-06-22T07:54:00;29.75;57.02
63976;DHT22;50167;47.958;21.780;2023-06-22T07:56:27;29.33;58.09
63976;DHT22;50167;47.958;21.780;2023-06-22T07:58:53;29.00;58.45
63976;DHT22;50167;47.958;21.780;2023-06-22T08:01:19;28.68;58.98
63976;DHT22;50167;47.958;21.780;2023-06-22T08:03:48;28.31;59.50
63976;DHT22;50167;47.958;21.780;2023-06-22T08:06:15;28.09;59.84
63976;DHT22;50167;47.958;21.780;2023-06-22T08:08:42;27.92;60.62
63976;DHT22;50167;47.958;21.780;2023-06-22T08:11:09;27.87;60.56
63976;DHT22;50167;47.958;21.780;2023-06-22T08:13:35;27.87;60.48
63976;DHT22;50167;47.958;21.780;2023-06-22T08:16:01;27.99;60.77
63976;DHT22;50167;47.958;21.780;2023-06-22T08:18:28;28.10;60.30
63976;DHT22;50167;47.958;21.780;2023-06-22T08:20:54;28.17;60.81
63976;DHT22;50167;47.958;21.780;2023-06-22T08:23:20;28.24;60.97
63976;DHT22;50167;47.958;21.780;2023-06-22T08:25:47;28.35;60.58
63976;DHT22;50167;47.958;21.780;2023-06-22T08:28:13;28.47;60.85
63976;DHT22;50167;47.958;21.780;2023-06-22T08:30:40;28.65;58.67
63976;DHT22;50167;47.958;21.780;2023-06-22T08:33:06;28.54;59.46
63976;DHT22;50167;47.958;21.780;2023-06-22T08:35:32;28.28;59.85
63976;DHT22;50167;47.958;21.780;2023-06-22T08:37:58;28.16;60.53
63976;DHT22;50167;47.958;21.780;2023-06-22T08:40:25;28.10;60.85
63976;DHT22;50167;47.958;21.780;2023-06-22T08:42:52;28.03;60.84
63976;DHT22;50167;47.958;21.780;2023-06-22T08:45:19;27.92;60.76
63976;DHT22;50167;47.958;21.780;2023-06-22T08:47:45;27.76;61.41
63976;DHT22;50167;47.958;21.780;2023-06-22T08:50:12;27.68;61.66
63976;DHT22;50167;47.958;21.780;2023-06-22T08:52:40;27.72;61.96
63976;DHT22;50167;47.958;21.780;2023-06-22T08:55:10;27.87;62.07
63976;DHT22;50167;47.958;21.780;2023-06-22T08:57:36;28.13;61.95
63976;DHT22;50167;47.958;21.780;2023-06-22T09:00:08;28.41;61.56
63976;DHT22;50167;47.958;21.780;2023-06-22T09:02:39;28.65;60.60
63976;DHT22;50167;47.958;21.780;2023-06-22T09:05:06;28.82;60.71
63976;DHT22;50167;47.958;21.780;2023-06-22T09:07:32;29.11;60.35
63976;DHT22;50167;47.958;21.780;2023-06-22T09:10:00;29.38;58.64
63976;DHT22;50167;47.958;21.780;2023-06-22T09:12:26;29.60;57.70
63976;DHT22;50167;47.958;21.780;2023-06-22T09:14:53;29.71;57.46
63976;DHT22;50167;47.958;21.780;2023-06-22T09:17:20;29.77;56.63
63976;DHT22;50167;47.958;21.780;2023-06-22T09:19:46;29.94;56.76
63976;DHT22;50167;47.958;21.780;2023-06-22T09:22:13;30.06;56.82
63976;DHT22;50167;47.958;21.780;2023-06-22T09:24:40;30.20;56.56
63976;DHT22;50167;47.958;21.780;2023-06-22T09:27:06;30.36;56.14
63976;DHT22;50167;47.958;21.780;2023-06-22T09:29:32;30.50;56.02
63976;DHT22;50167;47.958;21.780;2023-06-22T09:32:02;30.57;56.10
63976;DHT22;50167;47.958;21.780;2023-06-22T09:34:28;30.54;55.02
63976;DHT22;50167;47.958;21.780;2023-06-22T09:36:54;30.33;54.98
63976;DHT22;50167;47.958;21.780;2023-06-22T09:39:21;30.09;55.37
63976;DHT22;50167;47.958;21.780;2023-06-22T09:41:47;29.91;55.56
63976;DHT22;50167;47.958;21.780;2023-06-22T09:44:13;29.84;56.65
63976;DHT22;50167;47.958;21.780;2023-06-22T09:46:40;29.92;56.54
63976;DHT22;50167;47.958;21.780;2023-06-22T09:49:06;30.12;56.22
63976;DHT22;50167;47.958;21.780;2023-06-22T09:51:32;30.20;55.22
63976;DHT22;50167;47.958;21.780;2023-06-22T09:53:58;30.23;55.06
63976;DHT22;50167;47.958;21.780;2023-06-22T09:56:24;30.18;54.68
63976;DHT22;50167;47.958;21.780;2023-06-22T09:58:53;30.05;55.34
63976;DHT22;50167;47.958;21.780;2023-06-22T10:01:19;30.15;55.12
63976;DHT22;50167;47.958;21.780;2023-06-22T10:03:46;30.36;55.18
63976;DHT22;50167;47.958;21.780;2023-06-22T10:06:13;30.52;54.84
63976;DHT22;50167;47.958;21.780;2023-06-22T10:08:39;30.73;54.13
63976;DHT22;50167;47.958;21.780;2023-06-22T10:11:06;30.88;53.45
63976;DHT22;50167;47.958;21.780;2023-06-22T10:13:32;31.04;53.04
63976;DHT22;50167;47.958;21.780;2023-06-22T10:15:59;31.22;52.94
63976;DHT22;50167;47.958;21.780;2023-06-22T10:18:25;31.39;52.75
63976;DHT22;50167;47.958;21.780;2023-06-22T10:20:51;31.63;52.38
63976;DHT22;50167;47.958;21.780;2023-06-22T10:23:21;31.76;52.34
63976;DHT22;50167;47.958;21.780;2023-06-22T10:25:47;31.87;52.03
63976;DHT22;50167;47.958;21.780;2023-06-22T10:28:14;32.01;51.47
63976;DHT22;50167;47.958;21.780;2023-06-22T10:30:41;32.10;50.70
63976;DHT22;50167;47.958;21.780;2023-06-22T10:37:27;32.43;50.54
63976;DHT22;50167;47.958;21.780;2023-06-22T10:39:53;32.49;50.55
63976;DHT22;50167;47.958;21.780;2023-06-22T10:42:19;32.54;50.16
63976;DHT22;50167;47.958;21.780;2023-06-22T10:44:46;32.48;49.34
63976;DHT22;50167;47.958;21.780;2023-06-22T10:47:12;32.49;50.25
63976;DHT22;50167;47.958;21.780;2023-06-22T10:49:39;32.57;49.30
63976;DHT22;50167;47.958;21.780;2023-06-22T10:52:09;32.68;49.60
63976;DHT22;50167;47.958;21.780;2023-06-22T10:54:37;32.80;50.09
63976;DHT22;50167;47.958;21.780;2023-06-22T10:57:03;32.82;49.28
63976;DHT22;50167;47.958;21.780;2023-06-22T10:59:30;32.78;48.26
63976;DHT22;50167;47.958;21.780;2023-06-22T11:01:56;32.86;48.14
63976;DHT22;50167;47.958;21.780;2023-06-22T11:04:23;32.89;48.31
63976;DHT22;50167;47.958;21.780;2023-06-22T11:06:50;32.93;48.14
63976;DHT22;50167;47.958;21.780;2023-06-22T11:09:17;32.99;47.99
63976;DHT22;50167;47.958;21.780;2023-06-22T11:11:48;32.97;47.39
63976;DHT22;50167;47.958;21.780;2023-06-22T11:14:15;32.87;47.46
63976;DHT22;50167;47.958;21.780;2023-06-22T11:16:41;32.95;47.79
63976;DHT22;50167;47.958;21.780;2023-06-22T11:19:07;33.12;47.21
63976;DHT22;50167;47.958;21.780;2023-06-22T11:21:34;33.24;47.92
63976;DHT22;50167;47.958;21.780;2023-06-22T11:24:00;33.30;48.84
63976;DHT22;50167;47.958;21.780;2023-06-22T11:26:26;33.27;47.89
63976;DHT22;50167;47.958;21.780;2023-06-22T11:28:53;33.28;47.80
63976;DHT22;50167;47.958;21.780;2023-06-22T11:31:20;33.12;46.96
63976;DHT22;50167;47.958;21.780;2023-06-22T11:33:46;32.85;47.82
63976;DHT22;50167;47.958;21.780;2023-06-22T11:36:14;32.69;48.27
63976;DHT22;50167;47.958;21.780;2023-06-22T11:38:42;32.66;48.43
63976;DHT22;50167;47.958;21.780;2023-06-22T11:41:10;32.79;48.47
63976;DHT22;50167;47.958;21.780;2023-06-22T11:43:36;32.95;48.60
63976;DHT22;50167;47.958;21.780;2023-06-22T11:46:04;33.14;47.80
63976;DHT22;50167;47.958;21.780;2023-06-22T11:48:30;33.31;46.86
63976;DHT22;50167;47.958;21.780;2023-06-22T11:50:57;33.23;46.69
63976;DHT22;50167;47.958;21.780;2023-06-22T11:53:26;33.17;47.25
63976;DHT22;50167;47.958;21.780;2023-06-22T11:55:52;33.18;47.84
63976;DHT22;50167;47.958;21.780;2023-06-22T11:58:20;33.21;47.39
63976;DHT22;50167;47.958;21.780;2023-06-22T12:00:47;33.23;47.33
63976;DHT22;50167;47.958;21.780;2023-06-22T12:03:14;33.21;47.84
63976;DHT22;50167;47.958;21.780;2023-06-22T12:05:41;33.26;46.94
63976;DHT22;50167;47.958;21.780;2023-06-22T12:08:07;33.17;47.20
63976;DHT22;50167;47.958;21.780;2023-06-22T12:10:33;33.17;47.34
63976;DHT22;50167;47.958;21.780;2023-06-22T12:13:00;33.21;47.55
63976;DHT22;50167;47.958;21.780;2023-06-22T12:15:27;33.28;47.95
63976;DHT22;50167;47.958;21.780;2023-06-22T12:17:53;33.44;48.14
63976;DHT22;50167;47.958;21.780;2023-06-22T12:20:20;33.64;46.77
63976;DHT22;50167;47.958;21.780;2023-06-22T12:22:46;33.71;47.24
63976;DHT22;50167;47.958;21.780;2023-06-22T12:25:13;33.76;46.63
63976;DHT22;50167;47.958;21.780;2023-06-22T12:27:39;33.81;46.43
63976;DHT22;50167;47.958;21.780;2023-06-22T12:30:06;33.84;45.84
63976;DHT22;50167;47.958;21.780;2023-06-22T12:32:33;33.87;46.47
63976;DHT22;50167;47.958;21.780;2023-06-22T12:34:59;33.92;46.67
63976;DHT22;50167;47.958;21.780;2023-06-22T12:37:25;34.05;46.67
63976;DHT22;50167;47.958;21.780;2023-06-22T12:39:52;34.18;46.22
63976;DHT22;50167;47.958;21.780;2023-06-22T12:42:19;34.26;46.45
63976;DHT22;50167;47.958;21.780;2023-06-22T12:44:46;34.24;45.66
63976;DHT22;50167;47.958;21.780;2023-06-22T12:47:13;34.23;45.39
63976;DHT22;50167;47.958;21.780;2023-06-22T12:49:39;34.37;45.70
63976;DHT22;50167;47.958;21.780;2023-06-22T12:52:09;34.73;44.65
63976;DHT22;50167;47.958;21.780;2023-06-22T12:54:37;35.24;43.04
63976;DHT22;50167;47.958;21.780;2023-06-22T12:57:03;35.79;42.00
63976;DHT22;50167;47.958;21.780;2023-06-22T12:59:30;36.31;40.77
63976;DHT22;50167;47.958;21.780;2023-06-22T13:01:56;36.73;41.21
63976;DHT22;50167;47.958;21.780;2023-06-22T13:04:22;37.09;39.93
63976;DHT22;50167;47.958;21.780;2023-06-22T13:06:49;37.57;38.73
63976;DHT22;50167;47.958;21.780;2023-06-22T13:09:17;38.01;38.31
63976;DHT22;50167;47.958;21.780;2023-06-22T13:11:43;38.42;36.75
63976;DHT22;50167;47.958;21.780;2023-06-22T13:14:09;38.98;35.90
63976;DHT22;50167;47.958;21.780;2023-06-22T13:16:36;39.39;36.33
63976;DHT22;50167;47.958;21.780;2023-06-22T13:19:02;39.69;35.35
63976;DHT22;50167;47.958;21.780;2023-06-22T13:21:30;39.86;35.10
63976;DHT22;50167;47.958;21.780;2023-06-22T13:23:56;40.07;34.65
63976;DHT22;50167;47.958;21.780;2023-06-22T13:26:22;40.33;34.70
63976;DHT22;50167;47.958;21.780;2023-06-22T13:28:48;40.68;34.71
63976;DHT22;50167;47.958;21.780;2023-06-22T13:31:15;41.07;34.18
63976;DHT22;50167;47.958;21.780;2023-06-22T13:33:41;41.03;33.08
63976;DHT22;50167;47.958;21.780;2023-06-22T13:36:07;40.92;32.99
63976;DHT22;50167;47.958;21.780;2023-06-22T13:38:35;41.03;32.51
63976;DHT22;50167;47.958;21.780;2023-06-22T13:41:04;41.19;33.60
63976;DHT22;50167;47.958;21.780;2023-06-22T13:43:31;41.07;33.22
63976;DHT22;50167;47.958;21.780;2023-06-22T13:45:58;41.16;32.48
63976;DHT22;50167;47.958;21.780;2023-06-22T13:48:25;41.51;32.26
63976;DHT22;50167;47.958;21.780;2023-06-22T13:50:52;41.98;31.88
63976;DHT22;50167;47.958;21.780;2023-06-22T13:53:18;42.40;31.76
63976;DHT22;50167;47.958;21.780;2023-06-22T13:55:45;42.74;31.09
63976;DHT22;50167;47.958;21.780;2023-06-22T13:58:12;43.09;30.63
63976;DHT22;50167;47.958;21.780;2023-06-22T14:00:38;43.38;30.03
63976;DHT22;50167;47.958;21.780;2023-06-22T14:03:04;43.64;29.62
63976;DHT22;50167;47.958;21.780;2023-06-22T14:05:31;43.72;29.26
63976;DHT22;50167;47.958;21.780;2023-06-22T14:07:57;43.83;28.84
63976;DHT22;50167;47.958;21.780;2023-06-22T14:10:23;43.93;28.77
63976;DHT22;50167;47.958;21.780;2023-06-22T14:12:49;43.62;28.76
63976;DHT22;50167;47.958;21.780;2023-06-22T14:15:15;43.31;30.05
63976;DHT22;50167;47.958;21.780;2023-06-22T14:17:43;43.19;30.24
63976;DHT22;50167;47.958;21.780;2023-06-22T14:20:10;42.64;30.73
63976;DHT22;50167;47.958;21.780;2023-06-22T14:22:37;42.53;30.64
63976;DHT22;50167;47.958;21.780;2023-06-22T14:25:05;42.85;30.61
63976;DHT22;50167;47.958;21.780;2023-06-22T14:27:32;43.19;30.69
63976;DHT22;50167;47.958;21.780;2023-06-22T14:29:58;43.12;30.42
63976;DHT22;50167;47.958;21.780;2023-06-22T14:32:24;42.29;31.13
63976;DHT22;50167;47.958;21.780;2023-06-22T14:34:51;41.17;32.36
63976;DHT22;50167;47.958;21.780;2023-06-22T14:37:17;40.04;33.45
63976;DHT22;50167;47.958;21.780;2023-06-22T14:39:43;39.11;35.06
